KOLS

Nogales International Airport

Nogales, Arizona, USA
METAR KOLS 231054Z AUTO 00000KT 10SM FEW060 16/12 A2998 RMK AO2 SLP091 T01560117
Observed Flight Rules
Oct-23 @ 10:54 UTC (55 minutes ago) Visual Flight Rules
Visibility Clouds
10 miles
  • Few at 6,000' AGL
Temperatures Readings
Current 16°C / 61°F
Dewpoint 12°C / 54°F
Humidity 77%
Altimeter 29.98" Hg
Pressure 1009.1 hPa
Elevation 1184
METAR KOLS 231054Z AUTO 00000KT 10SM FEW060 16/12 A2998 RMK AO2 SLP091 T01560117
Observed Flight Rules
Oct-23 @ 10:54 UTC
(55 minutes ago)
VFR
Clouds
  • Few at 6,000' AGL
Temperature Dewpoint
16°C / 61°F 12°C / 54°F
Humidity Altimeter Pressure
77% 29.98" Hg 1009.1 hPa